createdAt,value
2024-02-22T00:02:28.692Z,0.40
2024-02-22T00:04:57.509Z,0.80
2024-02-22T00:07:28.430Z,0.20
2024-02-22T00:09:58.697Z,0.60
2024-02-22T00:12:27.508Z,0.40
2024-02-22T00:15:00.036Z,0.40
2024-02-22T00:17:31.069Z,0.55
2024-02-22T00:20:00.292Z,0.65
2024-02-22T00:22:31.993Z,0.30
2024-02-22T00:25:10.695Z,0.30
2024-02-22T00:27:40.314Z,0.57
2024-02-22T00:30:13.989Z,0.30
2024-02-22T00:32:43.950Z,0.30
2024-02-22T00:35:13.643Z,0.52
2024-02-22T00:37:43.882Z,0.40
2024-02-22T00:40:15.943Z,0.35
2024-02-22T00:42:47.250Z,0.35
2024-02-22T00:45:15.652Z,0.43
2024-02-22T00:47:44.440Z,0.30
2024-02-22T00:50:16.547Z,0.30
2024-02-22T00:52:54.839Z,0.25
2024-02-22T00:55:23.511Z,0.40
2024-02-22T00:57:53.178Z,0.22
2024-02-22T01:00:24.922Z,0.30
2024-02-22T01:02:54.604Z,0.43
2024-02-22T01:05:24.484Z,0.40
2024-02-22T01:07:54.784Z,0.32
2024-02-22T01:10:26.404Z,0.40
2024-02-22T01:13:01.181Z,0.20
2024-02-22T01:15:35.190Z,0.40
2024-02-22T01:18:06.100Z,0.30
2024-02-22T01:20:38.757Z,0.28
2024-02-22T01:23:13.271Z,0.40
2024-02-22T01:25:42.315Z,0.38
2024-02-22T01:28:14.477Z,0.40
2024-02-22T01:30:43.677Z,0.40
2024-02-22T01:33:13.859Z,0.43
2024-02-22T01:35:47.314Z,0.50
2024-02-22T01:38:20.961Z,0.25
2024-02-22T01:40:50.326Z,0.60
2024-02-22T01:43:19.001Z,0.47
2024-02-22T01:45:49.639Z,0.30
2024-02-22T01:48:22.010Z,0.40
2024-02-22T01:50:54.470Z,0.57
2024-02-22T01:53:28.378Z,0.40
2024-02-22T01:55:59.850Z,0.40
2024-02-22T01:58:30.592Z,0.52
2024-02-22T02:01:00.661Z,0.40
2024-02-22T02:03:30.654Z,0.60
2024-02-22T02:06:01.899Z,0.40
2024-02-22T02:08:34.541Z,0.32
2024-02-22T02:11:04.078Z,0.52
2024-02-22T02:13:32.991Z,0.43
2024-02-22T02:16:05.183Z,0.22
2024-02-22T02:18:33.612Z,0.30
2024-02-22T02:21:07.502Z,0.40
2024-02-22T02:23:54.514Z,0.20
2024-02-22T02:26:25.432Z,0.30
2024-02-22T02:28:54.802Z,0.40
2024-02-22T02:31:23.810Z,0.30
2024-02-22T02:33:53.097Z,0.32
2024-02-22T02:36:22.075Z,0.30
2024-02-22T02:38:51.143Z,0.40
2024-02-22T02:41:20.190Z,0.40
2024-02-22T02:43:50.894Z,0.40
2024-02-22T02:46:28.423Z,0.40
2024-02-22T02:48:59.219Z,0.32
2024-02-22T02:51:29.884Z,0.30
2024-02-22T02:54:00.391Z,0.50
2024-02-22T02:56:33.952Z,0.30
2024-02-22T02:59:07.070Z,0.47
2024-02-22T03:01:38.524Z,0.45
2024-02-22T03:04:12.106Z,0.40
2024-02-22T03:06:40.714Z,0.43
2024-02-22T03:09:11.770Z,0.50
2024-02-22T03:11:42.858Z,0.30
2024-02-22T03:14:16.902Z,0.32
2024-02-22T03:16:49.206Z,0.30
2024-02-22T03:19:18.561Z,0.57
2024-02-22T03:21:48.032Z,0.40
2024-02-22T03:24:16.898Z,0.32
2024-02-22T03:26:47.738Z,0.50
2024-02-22T03:29:18.359Z,0.40
2024-02-22T03:31:50.299Z,0.70
2024-02-22T03:34:21.431Z,0.40
2024-02-22T03:36:51.695Z,0.40
2024-02-22T03:39:22.155Z,0.38
2024-02-22T03:41:51.438Z,0.30
2024-02-22T03:44:21.763Z,0.40
2024-02-22T03:46:57.724Z,0.60
2024-02-22T03:49:26.415Z,0.40
2024-02-22T03:51:56.231Z,0.50
2024-02-22T03:54:24.791Z,0.20
2024-02-22T03:56:54.004Z,0.40
2024-02-22T03:59:28.666Z,0.40
2024-02-22T04:04:27.768Z,0.40
2024-02-22T04:06:58.342Z,0.50
2024-02-22T04:09:30.224Z,0.40
2024-02-22T04:12:02.552Z,0.60
2024-02-22T04:14:32.856Z,0.20
2024-02-22T04:17:02.675Z,0.30
2024-02-22T04:19:33.546Z,0.40
2024-02-22T04:22:03.286Z,0.45
2024-02-22T04:24:38.082Z,0.47
2024-02-22T04:27:07.020Z,0.40
2024-02-22T04:29:38.691Z,0.40
2024-02-22T04:32:07.819Z,0.30
2024-02-22T04:34:39.618Z,0.40
2024-02-22T04:37:08.469Z,0.45
2024-02-22T04:39:37.286Z,0.30
2024-02-22T04:42:08.765Z,0.30
2024-02-22T04:44:38.554Z,0.40
2024-02-22T04:47:07.786Z,0.47
2024-02-22T04:49:37.650Z,0.40
2024-02-22T04:52:07.993Z,0.47
2024-02-22T04:54:44.835Z,0.30
2024-02-22T04:57:15.989Z,0.40
2024-02-22T04:59:46.208Z,0.35
2024-02-22T05:02:18.000Z,0.47
2024-02-22T05:04:52.947Z,0.63
2024-02-22T05:07:23.483Z,0.55
2024-02-22T05:09:52.171Z,0.70
2024-02-22T05:12:23.910Z,0.60
2024-02-22T05:14:54.003Z,0.70
2024-02-22T05:17:26.743Z,0.73
2024-02-22T05:19:58.584Z,0.70
2024-02-22T05:22:28.030Z,0.60
2024-02-22T05:25:01.045Z,0.80
2024-02-22T05:27:30.927Z,0.90
2024-02-22T05:30:05.670Z,0.70
2024-02-22T05:35:08.384Z,0.55
2024-02-22T05:37:40.925Z,0.60
2024-02-22T05:40:09.608Z,0.50
2024-02-22T05:42:37.953Z,0.60
2024-02-22T05:45:10.715Z,0.50
2024-02-22T05:47:40.140Z,0.68
2024-02-22T05:50:14.122Z,0.40
2024-02-22T05:52:45.507Z,0.55
2024-02-22T05:55:16.516Z,0.52
2024-02-22T05:57:52.364Z,0.30
2024-02-22T06:00:28.663Z,0.60
2024-02-22T06:03:00.718Z,0.57
2024-02-22T06:05:32.831Z,0.40
2024-02-22T06:08:06.883Z,0.65
2024-02-22T06:10:36.713Z,0.50
2024-02-22T06:13:16.583Z,0.60
2024-02-22T06:15:58.040Z,0.70
2024-02-22T06:18:29.943Z,0.32
2024-02-22T06:21:01.000Z,0.40
2024-02-22T06:23:36.078Z,0.40
2024-02-22T06:26:20.095Z,0.40
2024-02-22T06:28:53.886Z,0.47
2024-02-22T06:31:32.414Z,0.50
2024-02-22T06:34:07.342Z,0.40
2024-02-22T06:36:45.595Z,0.30
2024-02-22T06:39:17.709Z,0.40
2024-02-22T06:41:57.609Z,0.35
2024-02-22T06:44:33.143Z,0.77
2024-02-22T06:47:24.179Z,0.60
2024-02-22T06:50:09.728Z,0.80
2024-02-22T06:52:59.727Z,0.60
2024-02-22T06:55:36.184Z,0.68
2024-02-22T06:58:09.946Z,0.55
2024-02-22T07:00:50.788Z,0.60
2024-02-22T07:03:45.732Z,0.30
2024-02-22T07:06:20.002Z,0.30
2024-02-22T07:09:01.111Z,0.57
2024-02-22T07:11:46.225Z,0.40
2024-02-22T07:14:21.447Z,0.43
2024-02-22T07:16:55.515Z,0.45
2024-02-22T07:19:34.165Z,0.50
2024-02-22T07:22:08.003Z,0.45
2024-02-22T07:24:42.414Z,0.70
2024-02-22T07:27:16.477Z,0.43
2024-02-22T07:30:00.476Z,0.60
2024-02-22T07:32:32.977Z,0.70
2024-02-22T07:35:26.209Z,0.60
2024-02-22T07:37:57.219Z,0.40
2024-02-22T07:40:30.001Z,0.43
2024-02-22T07:43:02.161Z,0.40
2024-02-22T07:45:42.737Z,0.40
2024-02-22T07:48:23.975Z,0.60
2024-02-22T07:51:14.962Z,0.60
2024-02-22T07:53:50.242Z,0.43
2024-02-22T07:56:27.973Z,0.45
2024-02-22T07:59:04.192Z,0.50
2024-02-22T08:01:34.461Z,0.60
2024-02-22T08:04:23.918Z,0.32
2024-02-22T08:07:10.656Z,0.70
2024-02-22T08:09:49.660Z,1.40
2024-02-22T08:12:27.737Z,1.55
2024-02-22T08:15:09.137Z,1.08
2024-02-22T08:17:47.027Z,0.90
2024-02-22T08:20:23.593Z,0.80
2024-02-22T08:23:11.441Z,0.90
2024-02-22T08:25:49.481Z,1.10
2024-02-22T08:28:37.165Z,0.93
2024-02-22T08:31:16.851Z,0.80
2024-02-22T08:33:58.323Z,0.65
2024-02-22T08:36:35.182Z,0.80
2024-02-22T08:39:11.920Z,0.90
2024-02-22T08:41:48.287Z,0.70
2024-02-22T08:44:18.266Z,0.60
2024-02-22T08:47:05.303Z,0.70
2024-02-22T08:49:51.292Z,0.70
2024-02-22T08:52:32.760Z,0.98
2024-02-22T08:55:11.642Z,1.02
2024-02-22T08:57:52.742Z,1.17
2024-02-22T09:00:38.913Z,1.27
2024-02-22T09:03:17.344Z,1.95
2024-02-22T09:06:03.116Z,2.22
2024-02-22T09:08:38.173Z,1.75
2024-02-22T09:11:33.403Z,1.00
2024-02-22T09:14:31.757Z,0.90
2024-02-22T09:17:17.304Z,0.80
2024-02-22T09:19:57.672Z,1.00
2024-02-22T09:22:42.286Z,1.10
2024-02-22T09:25:26.762Z,1.20
2024-02-22T09:28:03.569Z,1.50
2024-02-22T09:30:57.660Z,1.10
2024-02-22T09:33:43.469Z,1.10
2024-02-22T09:36:23.111Z,1.10
2024-02-22T09:39:22.825Z,0.98
2024-02-22T09:42:09.144Z,1.00
2024-02-22T09:44:40.067Z,0.95
2024-02-22T09:47:17.035Z,1.05
2024-02-22T09:49:50.982Z,1.17
2024-02-22T09:52:36.308Z,1.40
2024-02-22T09:55:10.463Z,1.63
2024-02-22T09:58:12.932Z,1.90
2024-02-22T10:00:48.237Z,1.00
2024-02-22T10:06:31.686Z,0.95
2024-02-22T10:09:30.057Z,0.80
2024-02-22T10:12:23.734Z,0.60
2024-02-22T10:15:17.046Z,0.60
2024-02-22T10:17:58.235Z,0.15
2024-02-22T10:23:16.423Z,0.30
2024-02-22T10:26:26.033Z,0.20
2024-02-22T10:29:30.227Z,0.30
2024-02-22T10:32:24.180Z,0.30
2024-02-22T10:35:15.762Z,0.30
2024-02-22T10:38:03.188Z,0.20
2024-02-22T10:40:50.807Z,0.30
2024-02-22T10:43:34.007Z,0.50
2024-02-22T10:46:42.907Z,0.30
2024-02-22T10:49:38.524Z,0.30
2024-02-22T10:52:31.448Z,0.40
2024-02-22T10:55:09.347Z,0.47
2024-02-22T10:57:45.707Z,0.20
2024-02-22T11:00:41.624Z,0.40
2024-02-22T11:03:15.202Z,0.50
2024-02-22T11:05:56.880Z,0.50
2024-02-22T11:08:46.712Z,0.40
2024-02-22T11:11:18.742Z,0.38
2024-02-22T11:14:07.087Z,0.25
2024-02-22T11:16:42.735Z,0.35
2024-02-22T11:19:26.124Z,0.22
2024-02-22T11:22:31.303Z,0.40
2024-02-22T11:25:15.763Z,0.43
2024-02-22T11:28:03.108Z,0.22
2024-02-22T11:30:35.967Z,0.20
2024-02-22T11:33:25.324Z,0.20
2024-02-22T11:35:56.619Z,0.30
2024-02-22T11:38:36.485Z,0.30
2024-02-22T11:41:34.133Z,0.30
2024-02-22T11:44:39.706Z,0.25
2024-02-22T11:47:19.320Z,0.30
2024-02-22T11:50:14.374Z,0.15
2024-02-22T11:55:36.425Z,0.30
2024-02-22T11:58:34.829Z,0.60
2024-02-22T12:01:22.891Z,0.20
2024-02-22T12:07:43.922Z,0.13
2024-02-22T12:10:41.606Z,0.50
2024-02-22T12:13:49.653Z,0.28
2024-02-22T12:17:04.211Z,0.35
2024-02-22T12:19:38.559Z,0.20
2024-02-22T12:22:19.370Z,0.20
2024-02-22T12:25:01.033Z,0.30
2024-02-22T12:27:54.616Z,0.20
2024-02-22T12:30:34.462Z,0.30
2024-02-22T12:33:20.148Z,0.20
2024-02-22T12:35:56.403Z,0.10
2024-02-22T12:38:38.397Z,0.30
2024-02-22T12:41:22.831Z,0.52
2024-02-22T12:44:08.188Z,0.30
2024-02-22T12:46:44.569Z,0.20
2024-02-22T12:49:27.104Z,0.10
2024-02-22T12:52:18.299Z,0.20
2024-02-22T12:55:04.369Z,0.20
2024-02-22T12:57:36.611Z,0.22
2024-02-22T13:00:07.557Z,0.15
2024-02-22T13:02:43.457Z,0.30
2024-02-22T13:05:19.008Z,0.20
2024-02-22T13:08:15.319Z,0.20
2024-02-22T13:10:54.157Z,0.40
2024-02-22T13:13:26.247Z,0.25
2024-02-22T13:16:08.856Z,0.40
2024-02-22T13:18:50.610Z,0.20
2024-02-22T13:21:32.096Z,0.30
2024-02-22T13:24:04.135Z,0.20
2024-02-22T13:26:40.169Z,0.30
2024-02-22T13:29:14.710Z,0.20
2024-02-22T13:31:50.418Z,0.20
2024-02-22T13:34:36.218Z,0.20
2024-02-22T13:37:17.835Z,0.10
2024-02-22T13:40:06.868Z,0.13
2024-02-22T13:42:48.146Z,0.20
2024-02-22T13:45:18.828Z,0.20
2024-02-22T13:47:55.302Z,0.10
2024-02-22T13:50:38.417Z,0.15
2024-02-22T13:53:14.427Z,0.20
2024-02-22T13:56:00.184Z,0.20
2024-02-22T13:58:39.945Z,0.20
2024-02-22T14:01:12.086Z,0.15
2024-02-22T14:03:45.903Z,0.20
2024-02-22T14:06:21.199Z,0.17
2024-02-22T14:08:54.380Z,0.30
2024-02-22T14:11:28.281Z,0.10
2024-02-22T14:14:11.808Z,0.30
2024-02-22T14:16:44.274Z,0.25
2024-02-22T14:19:22.493Z,0.13
2024-02-22T14:22:05.086Z,0.30
2024-02-22T14:24:49.397Z,0.10
2024-02-22T14:27:21.110Z,0.20
2024-02-22T14:29:56.524Z,0.13
2024-02-22T14:32:29.496Z,0.10
2024-02-22T14:35:12.841Z,0.10
2024-02-22T14:37:56.094Z,0.20
2024-02-22T14:40:31.066Z,0.28
2024-02-22T14:43:03.124Z,0.20
2024-02-22T14:45:45.167Z,0.20
2024-02-22T14:48:23.389Z,0.50
2024-02-22T14:50:55.324Z,0.20
2024-02-22T14:53:36.039Z,0.10
2024-02-22T14:56:11.968Z,0.30
2024-02-22T14:58:59.039Z,0.30
2024-02-22T15:01:35.058Z,0.30
2024-02-22T15:04:10.355Z,0.50
2024-02-22T15:06:49.683Z,0.50
2024-02-22T15:09:22.138Z,0.40
2024-02-22T15:11:59.647Z,0.40
2024-02-22T15:14:39.644Z,0.30
2024-02-22T15:17:12.514Z,0.20
2024-02-22T15:19:55.625Z,0.20
2024-02-22T15:28:31.317Z,0.32
2024-02-22T15:31:18.363Z,0.35
2024-02-22T15:33:58.387Z,0.30
2024-02-22T15:36:37.371Z,0.20
2024-02-22T15:39:14.583Z,0.10
2024-02-22T15:41:49.385Z,0.30
2024-02-22T15:44:30.827Z,0.32
2024-02-22T15:47:02.779Z,0.40
2024-02-22T15:49:44.384Z,0.30
2024-02-22T15:52:28.780Z,0.35
2024-02-22T15:55:10.706Z,0.50
2024-02-22T15:57:54.849Z,0.30
2024-02-22T16:00:32.595Z,0.20
2024-02-22T16:03:17.922Z,0.60
2024-02-22T16:05:52.937Z,0.50
2024-02-22T16:08:34.727Z,0.30
2024-02-22T16:11:12.747Z,0.22
2024-02-22T16:16:55.234Z,0.43
2024-02-22T16:19:47.256Z,0.30
2024-02-22T16:22:38.999Z,0.30
2024-02-22T16:25:18.159Z,0.30
2024-02-22T16:27:51.275Z,0.30
2024-02-22T16:30:24.493Z,0.50
2024-02-22T16:33:06.607Z,0.20
2024-02-22T16:35:42.953Z,0.22
2024-02-22T16:38:31.178Z,0.25
2024-02-22T16:41:04.179Z,0.10
2024-02-22T16:43:35.261Z,0.43
2024-02-22T16:46:07.228Z,0.20
2024-02-22T16:48:53.506Z,0.40
2024-02-22T16:51:28.179Z,0.40
2024-02-22T16:53:59.075Z,0.30
2024-02-22T16:56:36.532Z,0.30
2024-02-22T16:59:08.877Z,0.43
2024-02-22T17:01:56.632Z,0.30
2024-02-22T17:04:35.118Z,0.20
2024-02-22T17:07:19.671Z,0.50
2024-02-22T17:09:51.521Z,0.60
2024-02-22T17:12:25.758Z,0.40
2024-02-22T17:15:06.283Z,0.40
2024-02-22T17:17:47.898Z,0.40
2024-02-22T17:20:19.706Z,0.60
2024-02-22T17:22:52.217Z,0.40
2024-02-22T17:25:26.298Z,0.50
2024-02-22T17:28:00.833Z,0.47
2024-02-22T17:30:37.048Z,0.40
2024-02-22T17:33:19.719Z,0.30
2024-02-22T17:35:52.398Z,0.30
2024-02-22T17:38:34.358Z,0.35
2024-02-22T17:41:06.586Z,0.20
2024-02-22T17:43:41.094Z,0.30
2024-02-22T17:46:17.848Z,0.40
2024-02-22T17:48:53.214Z,0.60
2024-02-22T17:51:33.695Z,0.40
2024-02-22T17:54:06.757Z,0.40
2024-02-22T17:56:41.570Z,0.40
2024-02-22T17:59:12.175Z,0.60
2024-02-22T18:01:51.348Z,0.63
2024-02-22T18:04:27.038Z,0.40
2024-02-22T18:07:02.465Z,0.43
2024-02-22T18:09:34.060Z,0.40
2024-02-22T18:12:07.370Z,0.32
2024-02-22T18:14:45.582Z,0.30
2024-02-22T18:17:19.362Z,0.22
2024-02-22T18:19:52.341Z,0.30
2024-02-22T18:22:26.552Z,0.50
2024-02-22T18:24:57.122Z,0.50
2024-02-22T18:27:25.220Z,0.40
2024-02-22T18:29:58.315Z,0.32
2024-02-22T18:32:28.587Z,0.52
2024-02-22T18:34:58.699Z,0.25
2024-02-22T18:37:29.406Z,0.38
2024-02-22T18:39:59.802Z,0.30
2024-02-22T18:42:30.969Z,0.50
2024-02-22T18:45:01.867Z,0.70
2024-02-22T18:47:34.883Z,0.40
2024-02-22T18:50:08.520Z,1.20
2024-02-22T18:52:42.687Z,1.38
2024-02-22T18:55:12.727Z,0.60
2024-02-22T18:57:44.632Z,0.60
2024-02-22T19:00:14.490Z,0.60
2024-02-22T19:02:46.569Z,0.52
2024-02-22T19:05:20.452Z,0.43
2024-02-22T19:07:56.136Z,0.60
2024-02-22T19:10:29.125Z,0.55
2024-02-22T19:12:58.104Z,0.65
2024-02-22T19:15:30.411Z,1.85
2024-02-22T19:17:59.416Z,0.82
2024-02-22T19:20:32.132Z,1.52
2024-02-22T19:23:05.393Z,0.77
2024-02-22T19:25:36.312Z,1.20
2024-02-22T19:28:07.864Z,0.80
2024-02-22T19:30:38.602Z,0.63
2024-02-22T19:33:10.848Z,1.42
2024-02-22T19:35:44.215Z,0.40
2024-02-22T19:38:22.098Z,0.63
2024-02-22T19:40:52.690Z,0.77
2024-02-22T19:43:21.921Z,0.90
2024-02-22T19:45:51.422Z,0.85
2024-02-22T19:48:23.026Z,3.15
2024-02-22T19:50:52.949Z,1.20
2024-02-22T19:53:34.281Z,0.60
2024-02-22T19:56:07.610Z,0.82
2024-02-22T19:58:39.334Z,1.30
2024-02-22T20:01:12.737Z,1.52
2024-02-22T20:03:49.068Z,1.40
2024-02-22T20:09:24.938Z,2.08
2024-02-22T20:11:54.011Z,1.05
2024-02-22T20:14:27.917Z,1.33
2024-02-22T20:17:02.102Z,1.10
2024-02-22T20:19:33.904Z,1.38
2024-02-22T20:22:05.739Z,1.00
2024-02-22T20:24:42.259Z,1.50
2024-02-22T20:27:18.774Z,3.63
2024-02-22T20:29:51.652Z,2.30
2024-02-22T20:32:26.074Z,1.38
2024-02-22T20:35:04.579Z,1.42
2024-02-22T20:37:48.014Z,1.33
2024-02-22T20:40:21.949Z,1.33
2024-02-22T20:43:02.621Z,1.15
2024-02-22T20:45:36.979Z,1.70
2024-02-22T20:48:09.655Z,1.98
2024-02-22T20:50:50.096Z,1.20
2024-02-22T20:53:20.165Z,1.90
2024-02-22T20:55:59.046Z,1.40
2024-02-22T20:58:36.039Z,1.27
2024-02-22T21:01:07.244Z,0.98
2024-02-22T21:03:39.628Z,0.60
2024-02-22T21:06:09.898Z,2.22
2024-02-22T21:08:43.098Z,0.98
2024-02-22T21:11:18.713Z,0.93
2024-02-22T21:14:01.504Z,1.05
2024-02-22T21:16:32.559Z,1.50
2024-02-22T21:19:11.420Z,0.70
2024-02-22T21:21:41.264Z,1.05
2024-02-22T21:24:14.128Z,1.55
2024-02-22T21:26:47.659Z,0.75
2024-02-22T21:29:21.789Z,0.70
2024-02-22T21:31:54.622Z,0.82
2024-02-22T21:34:23.992Z,0.90
2024-02-22T21:36:56.551Z,0.98
2024-02-22T21:39:25.435Z,1.10
2024-02-22T21:42:08.233Z,1.65
2024-02-22T21:44:38.093Z,1.08
2024-02-22T21:47:08.282Z,1.42
2024-02-22T21:49:39.797Z,0.93
2024-02-22T21:52:10.901Z,0.30
2024-02-22T21:54:46.257Z,1.00
2024-02-22T21:57:21.899Z,0.90
2024-02-22T22:02:24.609Z,0.98
2024-02-22T22:04:55.314Z,1.25
2024-02-22T22:07:33.267Z,0.60
2024-02-22T22:10:07.648Z,0.90
2024-02-22T22:12:42.779Z,0.95
2024-02-22T22:15:22.204Z,0.63
2024-02-22T22:17:52.890Z,1.08
2024-02-22T22:20:28.683Z,0.60
2024-02-22T22:23:01.579Z,1.55
2024-02-22T22:25:34.096Z,1.67
2024-02-22T22:28:07.547Z,0.85
2024-02-22T22:30:36.369Z,1.08
2024-02-22T22:33:06.070Z,1.00
2024-02-22T22:35:40.542Z,0.80
2024-02-22T22:38:15.694Z,0.70
2024-02-22T22:40:50.281Z,0.88
2024-02-22T22:43:24.521Z,0.88
2024-02-22T22:45:55.502Z,1.50
2024-02-22T22:48:25.113Z,0.68
2024-02-22T22:51:12.905Z,0.95
2024-02-22T22:53:54.614Z,0.50
2024-02-22T22:56:24.361Z,0.90
2024-02-22T22:59:04.419Z,0.80
2024-02-22T23:01:36.056Z,1.00
2024-02-22T23:04:07.177Z,0.50
2024-02-22T23:06:38.825Z,0.75
2024-02-22T23:09:11.213Z,0.57
2024-02-22T23:11:41.443Z,0.60
2024-02-22T23:14:12.108Z,0.50
2024-02-22T23:16:42.432Z,0.80
2024-02-22T23:19:16.036Z,0.90
2024-02-22T23:21:47.468Z,1.10
2024-02-22T23:24:27.067Z,0.85
2024-02-22T23:26:55.909Z,0.75
2024-02-22T23:29:25.738Z,0.60
2024-02-22T23:31:54.440Z,0.38
2024-02-22T23:34:26.136Z,0.60
2024-02-22T23:36:56.197Z,0.70
2024-02-22T23:39:26.688Z,0.70
2024-02-22T23:41:56.023Z,0.60
2024-02-22T23:44:28.972Z,0.60
2024-02-22T23:46:57.775Z,0.85
2024-02-22T23:49:26.159Z,0.40
2024-02-22T23:51:54.446Z,0.63
2024-02-22T23:54:22.367Z,0.70
2024-02-22T23:56:52.701Z,0.55
2024-02-22T23:59:22.794Z,0.50
